Time;durP1;ratioP1;P1;durP2;ratioP2;P2;SDS_P1;SDS_P2;PMS_P1;PMS_P2;Temp;Humidity;BMP_temperature;BMP_pressure;BME280_temperature;BME280_humidity;BME280_pressure;Samples;Min_cycle;Max_cycle;Signal;HPM_P1;HPM_P2
2023/10/11 00:00:38;;;;;;;4.93;2.40;;;16.20;99.90;;;;;;5013181;28;20030;-74
2023/10/11 00:03:17;;;;;;;5.53;2.53;;;16.20;99.90;;;;;;5017537;28;20479;-74
2023/10/11 00:05:45;;;;;;;4.75;2.42;;;16.20;99.90;;;;;;4983850;28;20515;-74
2023/10/11 00:08:13;;;;;;;5.43;2.65;;;16.10;99.90;;;;;;5017915;28;20637;-74
2023/10/11 00:10:54;;;;;;;5.72;2.63;;;16.10;99.90;;;;;;5017539;28;20034;-75
2023/10/11 00:13:24;;;;;;;4.00;2.20;;;16.10;99.90;;;;;;5016488;28;20419;-75
2023/10/11 00:15:52;;;;;;;4.32;2.03;;;16.00;99.90;;;;;;4999423;28;20048;-73
2023/10/11 00:18:19;;;;;;;9.35;2.75;;;16.00;99.90;;;;;;5017252;28;20036;-74
2023/10/11 00:20:51;;;;;;;5.63;2.80;;;16.00;99.90;;;;;;5016824;28;20048;-74
2023/10/11 00:23:21;;;;;;;4.07;2.55;;;16.00;99.90;;;;;;5019243;28;20033;-74
2023/10/11 00:25:50;;;;;;;7.22;4.07;;;16.00;99.90;;;;;;5018430;28;20393;-74
2023/10/11 00:28:18;;;;;;;5.45;2.67;;;16.00;99.90;;;;;;5016133;28;20034;-75
2023/10/11 00:30:47;;;;;;;7.10;3.55;;;16.00;99.90;;;;;;5001630;28;20097;-74
2023/10/11 00:33:13;;;;;;;6.65;2.53;;;16.00;99.90;;;;;;4997386;28;20029;-75
2023/10/11 00:35:47;;;;;;;4.57;2.35;;;15.90;99.90;;;;;;5012572;28;20029;-75
2023/10/11 00:38:26;;;;;;;3.97;2.58;;;16.00;99.90;;;;;;5017355;28;20690;-74
2023/10/11 00:41:01;;;;;;;6.13;2.67;;;16.00;99.90;;;;;;5000716;28;20144;-75
2023/10/11 00:43:36;;;;;;;5.03;3.05;;;16.00;99.90;;;;;;5018506;28;20488;-74
2023/10/11 00:46:08;;;;;;;7.40;3.55;;;16.00;99.90;;;;;;5015953;28;20044;-75
2023/10/11 00:51:29;;;;;;;5.43;3.58;;;16.00;99.90;;;;;;5017659;28;20037;-74
2023/10/11 00:54:00;;;;;;;7.57;3.75;;;16.00;99.90;;;;;;5015980;28;20038;-73
2023/10/11 00:56:31;;;;;;;5.47;2.78;;;16.10;99.90;;;;;;4999952;28;20037;-75
2023/10/11 00:59:10;;;;;;;5.28;2.38;;;16.10;99.90;;;;;;5017282;28;20033;-75
2023/10/11 01:01:44;;;;;;;7.93;3.42;;;16.10;99.90;;;;;;5014233;28;20041;-74
2023/10/11 01:04:13;;;;;;;6.05;2.85;;;16.10;99.90;;;;;;5016731;28;20033;-75
2023/10/11 01:06:40;;;;;;;6.22;3.20;;;16.10;99.90;;;;;;5014593;28;20404;-74
2023/10/11 01:09:14;;;;;;;5.70;2.20;;;16.10;99.90;;;;;;4999689;28;20021;-75
2023/10/11 01:11:41;;;;;;;4.40;2.58;;;16.10;99.90;;;;;;5017488;28;20136;-75
2023/10/11 01:14:11;;;;;;;4.57;2.83;;;16.10;99.90;;;;;;4999486;28;20029;-75
2023/10/11 01:16:38;;;;;;;5.82;3.08;;;16.10;99.90;;;;;;5014385;28;20040;-75
2023/10/11 01:19:11;;;;;;;4.65;2.55;;;16.10;99.90;;;;;;5000329;28;20060;-75
2023/10/11 01:21:45;;;;;;;4.70;2.58;;;16.10;99.90;;;;;;5011178;28;20029;-76
2023/10/11 01:24:11;;;;;;;4.75;2.88;;;16.10;99.90;;;;;;5015027;28;21025;-75
2023/10/11 01:26:38;;;;;;;5.88;3.03;;;16.10;99.90;;;;;;4982797;28;20511;-75
2023/10/11 01:29:05;;;;;;;6.78;3.38;;;16.10;99.90;;;;;;5017613;28;20400;-74
2023/10/11 01:31:34;;;;;;;4.40;2.60;;;16.10;99.90;;;;;;5011979;28;20029;-74
2023/10/11 01:34:01;;;;;;;5.57;2.78;;;16.10;99.90;;;;;;5015571;28;20041;-75
2023/10/11 01:36:28;;;;;;;5.53;2.88;;;16.10;99.90;;;;;;5014898;28;20365;-73
2023/10/11 01:38:54;;;;;;;5.63;2.80;;;16.10;99.90;;;;;;5000237;28;20029;-75
2023/10/11 01:41:26;;;;;;;5.38;2.92;;;16.10;99.90;;;;;;4999843;28;20044;-75
2023/10/11 01:43:54;;;;;;;4.28;2.80;;;16.10;99.90;;;;;;5017503;28;20029;-74
2023/10/11 01:46:24;;;;;;;5.22;3.17;;;16.10;99.90;;;;;;4984295;28;20397;-73
2023/10/11 01:48:52;;;;;;;4.95;2.80;;;16.10;99.90;;;;;;5016182;28;20037;-75
2023/10/11 01:51:27;;;;;;;6.13;2.90;;;16.10;99.90;;;;;;4998606;28;20500;-75
2023/10/11 01:53:59;;;;;;;7.75;2.90;;;16.00;99.90;;;;;;5027374;28;20033;-75
2023/10/11 01:56:27;;;;;;;6.88;2.80;;;16.00;99.90;;;;;;5013977;28;20038;-74
2023/10/11 01:58:56;;;;;;;6.22;3.05;;;16.00;99.90;;;;;;5014195;28;20067;-75
2023/10/11 02:01:26;;;;;;;8.07;3.28;;;16.00;99.90;;;;;;5011584;28;20642;-75
2023/10/11 02:03:56;;;;;;;4.20;2.80;;;16.00;99.90;;;;;;4998471;28;20037;-74
2023/10/11 02:06:23;;;;;;;4.90;2.50;;;16.00;99.90;;;;;;4998380;28;20060;-75
2023/10/11 02:08:51;;;;;;;5.00;3.33;;;16.00;99.90;;;;;;4998667;28;20026;-74
2023/10/11 02:11:23;;;;;;;6.35;3.03;;;16.00;99.90;;;;;;5012912;28;20033;-75
2023/10/11 02:13:51;;;;;;;5.78;2.80;;;16.00;99.90;;;;;;5014721;28;20045;-74
2023/10/11 02:16:17;;;;;;;6.03;2.92;;;16.00;99.90;;;;;;4998045;28;20052;-74
2023/10/11 02:18:44;;;;;;;6.75;3.42;;;16.00;99.90;;;;;;5001308;28;20064;-74
2023/10/11 02:21:11;;;;;;;6.38;3.00;;;16.00;99.90;;;;;;5016671;28;20374;-74
2023/10/11 02:23:39;;;;;;;5.30;3.00;;;16.00;99.90;;;;;;4999611;28;20041;-75
2023/10/11 02:26:12;;;;;;;5.88;2.78;;;16.00;99.90;;;;;;4980990;28;20040;-74
2023/10/11 02:28:40;;;;;;;6.03;3.40;;;15.90;99.90;;;;;;5017584;28;20044;-75
2023/10/11 02:31:07;;;;;;;8.68;3.67;;;16.00;99.90;;;;;;5015029;28;20030;-74
2023/10/11 02:33:34;;;;;;;6.70;3.20;;;15.90;99.90;;;;;;5014942;28;20037;-75
2023/10/11 02:36:17;;;;;;;4.45;2.75;;;15.90;99.90;;;;;;4998267;28;20493;-75
2023/10/11 02:38:50;;;;;;;7.32;3.65;;;15.90;99.90;;;;;;5018009;28;20408;-74
2023/10/11 02:41:24;;;;;;;6.82;3.10;;;15.80;99.90;;;;;;5018629;28;20036;-75
2023/10/11 02:43:52;;;;;;;4.82;3.03;;;15.80;99.90;;;;;;5001859;28;20041;-75
2023/10/11 02:46:23;;;;;;;6.18;2.83;;;15.80;99.90;;;;;;5002110;28;20041;-73
2023/10/11 02:48:54;;;;;;;5.07;2.97;;;15.80;99.90;;;;;;5019625;28;20048;-75
2023/10/11 02:51:24;;;;;;;6.43;3.50;;;15.70;99.90;;;;;;5001849;28;20144;-75
2023/10/11 02:53:54;;;;;;;5.72;3.35;;;15.70;99.90;;;;;;4999458;28;20037;-75
2023/10/11 02:56:24;;;;;;;5.20;2.70;;;15.60;99.90;;;;;;4995897;28;20485;-75
2023/10/11 02:58:51;;;;;;;7.15;3.10;;;15.60;99.90;;;;;;4985095;28;20052;-75
2023/10/11 03:01:20;;;;;;;7.40;3.50;;;15.60;99.90;;;;;;5017567;28;20503;-75
2023/10/11 03:03:48;;;;;;;5.93;3.33;;;15.50;99.90;;;;;;5011272;28;20049;-75
2023/10/11 03:06:15;;;;;;;4.55;2.33;;;15.50;99.90;;;;;;5013530;28;20044;-74
2023/10/11 03:08:41;;;;;;;4.22;2.63;;;15.40;99.90;;;;;;4986081;28;20044;-74
2023/10/11 03:11:15;;;;;;;4.82;2.85;;;15.40;99.90;;;;;;5017697;28;20040;-74
2023/10/11 03:13:43;;;;;;;4.75;2.92;;;15.30;99.90;;;;;;5010697;28;20527;-74
2023/10/11 03:16:12;;;;;;;8.20;3.53;;;15.30;99.90;;;;;;5018946;28;20100;-74
2023/10/11 03:18:40;;;;;;;6.32;3.40;;;15.20;99.90;;;;;;5018524;28;20416;-75
2023/10/11 03:21:18;;;;;;;5.22;3.05;;;15.20;99.90;;;;;;4987171;28;20492;-74
2023/10/11 03:23:49;;;;;;;4.15;3.10;;;15.20;99.90;;;;;;5018534;28;20025;-74
2023/10/11 03:26:39;;;;;;;5.68;3.35;;;15.10;99.90;;;;;;5001185;28;20045;-74
2023/10/11 03:29:04;;;;;;;5.63;3.08;;;15.10;99.90;;;;;;5000855;28;20766;-74
2023/10/11 03:31:33;;;;;;;4.18;2.60;;;15.10;99.90;;;;;;5031635;28;20052;-74
2023/10/11 03:34:01;;;;;;;6.38;3.25;;;15.00;99.90;;;;;;5018769;28;20104;-75
2023/10/11 03:36:50;;;;;;;4.85;2.92;;;15.00;99.90;;;;;;5016743;28;20041;-74
2023/10/11 03:40:27;;;;;;;5.72;3.95;;;15.00;99.90;;;;;;5018519;28;20068;-74
2023/10/11 03:42:17;;;;;;;6.30;3.38;;;14.90;99.90;;;;;;4996273;28;20045;-75
2023/10/11 03:44:47;;;;;;;8.35;4.50;;;14.90;99.90;;;;;;5029492;28;20034;-75
2023/10/11 03:47:14;;;;;;;5.22;2.88;;;14.90;99.90;;;;;;5017850;28;20942;-74
2023/10/11 03:49:51;;;;;;;6.13;4.10;;;14.90;99.90;;;;;;5019055;28;20029;-75
2023/10/11 03:52:24;;;;;;;6.32;4.13;;;14.90;99.90;;;;;;5002448;28;20029;-75
2023/10/11 03:54:54;;;;;;;5.68;3.80;;;14.80;99.90;;;;;;5001244;28;20044;-74
2023/10/11 03:57:22;;;;;;;6.28;4.28;;;14.80;99.90;;;;;;5001741;28;20389;-75
2023/10/11 03:59:52;;;;;;;5.43;3.20;;;14.80;99.90;;;;;;5016738;28;20429;-74
2023/10/11 04:02:19;;;;;;;6.00;3.58;;;14.80;99.90;;;;;;5012813;28;20033;-75
2023/10/11 04:04:49;;;;;;;6.18;4.35;;;14.80;99.90;;;;;;5013348;28;20033;-74
2023/10/11 04:07:17;;;;;;;7.47;4.47;;;14.80;99.90;;;;;;5017670;28;20044;-74
2023/10/11 04:09:46;;;;;;;5.78;4.00;;;14.80;99.90;;;;;;5001332;28;20033;-75
2023/10/11 04:12:13;;;;;;;6.55;3.22;;;14.80;99.90;;;;;;4999299;28;22189;-74
2023/10/11 04:14:44;;;;;;;6.82;3.28;;;14.80;99.90;;;;;;5016500;28;20037;-74
2023/10/11 04:17:30;;;;;;;5.30;3.40;;;14.70;99.90;;;;;;5026625;28;20100;-75
2023/10/11 04:23:01;;;;;;;8.00;4.38;;;14.70;99.90;;;;;;4999634;28;20037;-74
2023/10/11 04:25:32;;;;;;;7.22;3.85;;;14.60;99.90;;;;;;5017321;28;20033;-75
2023/10/11 04:28:02;;;;;;;7.60;4.65;;;14.60;99.90;;;;;;5016310;28;20040;-74
2023/10/11 04:30:41;;;;;;;5.47;3.22;;;14.70;99.90;;;;;;5000579;28;20041;-75
2023/10/11 04:33:12;;;;;;;8.35;4.32;;;14.60;99.90;;;;;;5016760;28;20033;-75
2023/10/11 04:35:57;;;;;;;6.20;4.00;;;14.60;99.90;;;;;;4998928;28;20029;-75
2023/10/11 04:38:24;;;;;;;6.47;3.67;;;14.60;99.90;;;;;;5001711;28;20056;-74
2023/10/11 04:43:29;;;;;;;9.65;5.07;;;14.60;99.90;;;;;;5000055;28;20041;-74
2023/10/11 04:46:00;;;;;;;8.13;3.78;;;14.60;99.90;;;;;;4995014;28;20476;-75
2023/10/11 04:48:33;;;;;;;5.80;4.15;;;14.60;99.90;;;;;;5017298;28;20040;-75
2023/10/11 04:51:06;;;;;;;8.95;6.22;;;14.60;99.90;;;;;;5016851;28;20025;-75
2023/10/11 04:53:57;;;;;;;10.07;5.65;;;14.60;99.90;;;;;;5028116;28;20033;-75
2023/10/11 04:59:07;;;;;;;6.50;4.53;;;14.60;99.90;;;;;;5017364;28;20037;-75
2023/10/11 05:01:58;;;;;;;6.30;3.75;;;14.50;99.90;;;;;;5017023;28;20032;-75
2023/10/11 05:04:33;;;;;;;6.75;4.60;;;14.60;99.90;;;;;;5015523;28;20468;-74
2023/10/11 05:07:07;;;;;;;9.27;4.72;;;14.60;99.90;;;;;;5016521;28;20487;-75
2023/10/11 05:09:39;;;;;;;8.02;4.90;;;14.60;99.90;;;;;;5017508;28;20033;-74
2023/10/11 05:12:08;;;;;;;6.90;4.28;;;14.60;99.90;;;;;;5000555;28;20037;-75
2023/10/11 05:22:49;;;;;;;8.82;4.88;;;14.50;99.90;;;;;;5017959;28;20495;-76
2023/10/11 05:28:07;;;;;;;8.73;4.50;;;14.50;99.90;;;;;;5018162;28;20487;-76
2023/10/11 05:30:37;;;;;;;8.35;4.85;;;14.50;99.90;;;;;;5015031;28;20033;-75
2023/10/11 05:52:16;;;;;;;7.30;6.10;;;14.50;99.90;;;;;;5017078;28;20034;-76
2023/10/11 05:54:43;;;;;;;10.55;6.93;;;14.60;99.90;;;;;;5012404;28;20156;-75
2023/10/11 05:57:13;;;;;;;9.35;6.13;;;14.70;99.90;;;;;;5016381;28;20048;-77
2023/10/11 05:59:42;;;;;;;8.82;6.60;;;14.70;99.90;;;;;;4984206;28;20030;-75
2023/10/11 06:02:14;;;;;;;8.95;5.50;;;14.80;99.90;;;;;;5015929;28;20041;-75
2023/10/11 06:04:41;;;;;;;11.18;5.55;;;14.80;99.90;;;;;;5017448;28;20300;-75
2023/10/11 06:07:12;;;;;;;9.55;5.50;;;14.80;99.90;;;;;;4994859;28;20617;-76
2023/10/11 06:09:43;;;;;;;9.27;4.22;;;14.90;99.90;;;;;;5016932;28;20042;-76
2023/10/11 06:12:22;;;;;;;7.78;3.80;;;15.00;99.90;;;;;;4998589;28;20385;-76
2023/10/11 06:14:53;;;;;;;13.05;6.55;;;15.00;99.90;;;;;;5005027;28;20037;-76
2023/10/11 06:17:21;;;;;;;7.72;5.60;;;15.10;99.90;;;;;;5016452;28;20045;-76
2023/10/11 06:19:54;;;;;;;9.45;6.03;;;15.10;99.90;;;;;;5004100;28;20041;-76
2023/10/11 06:22:21;;;;;;;;;;;15.20;99.90;;;;;;5002883;28;20626;-77
2023/10/11 06:24:48;;;;;;;10.95;6.20;;;15.20;99.90;;;;;;5002113;28;19913;-77
2023/10/11 06:30:06;;;;;;;7.63;4.90;;;15.30;99.90;;;;;;5018782;28;20037;-77
2023/10/11 06:32:35;;;;;;;10.57;7.07;;;15.30;99.90;;;;;;5004098;28;20029;-76
2023/10/11 06:35:04;;;;;;;12.40;6.70;;;15.30;99.90;;;;;;5003888;28;20029;-75
2023/10/11 06:37:34;;;;;;;10.75;7.10;;;15.40;99.90;;;;;;5021232;28;20044;-74
2023/10/11 06:42:31;;;;;;;7.93;5.90;;;15.50;99.90;;;;;;5003247;28;20338;-74
2023/10/11 06:45:00;;;;;;;10.63;6.68;;;15.50;99.90;;;;;;5014165;28;20037;-75
2023/10/11 06:47:35;;;;;;;12.20;6.00;;;15.60;99.90;;;;;;5019349;28;20480;-75
2023/10/11 06:50:12;;;;;;;12.48;8.10;;;15.70;99.90;;;;;;5003053;28;20038;-73
2023/10/11 06:52:43;;;;;;;9.20;6.10;;;15.70;99.90;;;;;;5002588;28;20044;-73
2023/10/11 06:55:15;;;;;;;7.43;4.53;;;15.90;99.90;;;;;;5021013;28;20041;-73
2023/10/11 06:57:54;;;;;;;10.02;6.05;;;15.90;99.90;;;;;;5018118;28;20046;-73
2023/10/11 07:00:27;;;;;;;11.45;7.43;;;16.10;99.90;;;;;;5034954;28;20068;-73
2023/10/11 07:05:56;;;;;;;7.38;5.05;;;16.20;99.90;;;;;;5017282;28;20045;-73
2023/10/11 07:08:34;;;;;;;12.50;6.93;;;16.20;99.90;;;;;;5018457;28;20052;-73
2023/10/11 07:11:16;;;;;;;8.25;5.80;;;16.30;99.90;;;;;;5018983;28;20034;-73
2023/10/11 07:13:49;;;;;;;11.25;5.97;;;16.30;99.90;;;;;;5030368;28;20057;-73
2023/10/11 07:16:19;;;;;;;10.50;6.10;;;16.40;99.90;;;;;;5015471;28;20049;-76
2023/10/11 07:18:46;;;;;;;9.48;5.10;;;16.40;99.90;;;;;;5019981;28;20037;-73
2023/10/11 07:21:16;;;;;;;7.95;5.45;;;16.50;99.90;;;;;;5015751;28;20061;-74
2023/10/11 07:26:23;;;;;;;12.10;6.05;;;16.50;99.90;;;;;;5033063;28;20038;-73
2023/10/11 07:28:51;;;;;;;8.23;6.13;;;16.50;99.90;;;;;;5020204;28;20469;-74
2023/10/11 07:31:18;;;;;;;9.25;5.18;;;16.50;99.90;;;;;;5018611;28;20038;-73
2023/10/11 07:33:49;;;;;;;9.05;5.35;;;16.50;99.90;;;;;;5001321;28;20147;-74
2023/10/11 07:36:19;;;;;;;17.40;8.53;;;16.50;99.90;;;;;;5022541;28;20049;-73
2023/10/11 07:38:55;;;;;;;13.38;6.70;;;16.60;99.90;;;;;;5041908;28;20029;-74
2023/10/11 07:41:27;;;;;;;15.40;8.18;;;16.60;99.90;;;;;;4998246;28;20052;-74
2023/10/11 07:43:56;;;;;;;9.52;7.00;;;16.60;99.90;;;;;;5001237;28;20488;-75
2023/10/11 07:46:23;;;;;;;14.70;7.45;;;16.70;99.90;;;;;;5003107;28;20034;-75
2023/10/11 07:49:01;;;;;;;12.35;7.50;;;16.70;99.90;;;;;;5018470;28;20030;-74
2023/10/11 07:51:29;;;;;;;8.63;6.53;;;16.80;99.90;;;;;;5018995;28;20596;-72
2023/10/11 07:53:55;;;;;;;14.65;8.63;;;16.80;99.90;;;;;;5012055;28;20116;-73
2023/10/11 07:56:22;;;;;;;16.48;9.38;;;16.80;99.90;;;;;;5018118;28;20044;-73
2023/10/11 07:58:49;;;;;;;15.90;8.80;;;16.80;99.90;;;;;;5020554;28;20036;-73
2023/10/11 08:01:24;;;;;;;12.38;8.13;;;16.70;99.90;;;;;;5019790;28;20028;-73
2023/10/11 08:03:51;;;;;;;11.10;7.70;;;16.70;99.90;;;;;;5017252;28;20025;-73
2023/10/11 08:06:24;;;;;;;10.98;7.22;;;16.70;99.90;;;;;;5020935;28;20026;-74
2023/10/11 08:09:00;;;;;;;14.90;8.48;;;16.70;99.90;;;;;;5015469;28;20033;-73
2023/10/11 08:11:36;;;;;;;11.02;6.22;;;16.70;99.90;;;;;;5001108;28;20478;-73
2023/10/11 08:14:06;;;;;;;8.77;5.82;;;16.70;99.90;;;;;;5031849;28;20519;-73
2023/10/11 08:16:34;;;;;;;15.57;10.32;;;16.70;99.90;;;;;;4996629;28;20378;-73
2023/10/11 08:19:00;;;;;;;12.43;7.55;;;16.70;99.90;;;;;;5020384;28;20049;-73
2023/10/11 08:21:30;;;;;;;10.50;6.32;;;16.80;99.90;;;;;;5019901;28;20915;-73
2023/10/11 08:23:57;;;;;;;14.07;6.80;;;16.80;99.90;;;;;;5020797;28;20025;-72
2023/10/11 08:26:32;;;;;;;16.90;8.90;;;16.90;99.90;;;;;;5017739;28;20503;-73
2023/10/11 08:29:14;;;;;;;14.27;10.15;;;17.10;99.90;;;;;;5017836;28;20044;-73
2023/10/11 08:31:44;;;;;;;10.10;7.78;;;17.30;99.90;;;;;;5001441;28;20037;-73
2023/10/11 08:34:14;;;;;;;14.80;9.43;;;17.40;99.90;;;;;;5016459;28;20407;-73
2023/10/11 08:36:43;;;;;;;16.08;10.38;;;17.60;99.90;;;;;;5027072;28;20041;-73
2023/10/11 08:39:13;;;;;;;11.52;9.23;;;17.70;99.90;;;;;;5017811;28;20048;-73
2023/10/11 08:41:43;;;;;;;15.02;8.88;;;17.70;99.90;;;;;;5017842;28;20040;-74
2023/10/11 08:44:20;;;;;;;13.25;8.93;;;17.70;99.90;;;;;;5016619;28;20472;-74
2023/10/11 08:46:49;;;;;;;14.25;9.82;;;17.70;99.90;;;;;;5016627;28;20509;-74
2023/10/11 08:49:17;;;;;;;17.13;11.90;;;17.70;99.90;;;;;;5017758;28;20048;-73
2023/10/11 08:51:44;;;;;;;13.18;8.45;;;17.80;99.90;;;;;;4999903;28;20029;-74
2023/10/11 08:54:11;;;;;;;15.43;11.43;;;17.70;99.90;;;;;;5000066;28;20392;-73
2023/10/11 08:56:39;;;;;;;13.95;9.93;;;17.70;99.90;;;;;;4999906;28;20034;-74
2023/10/11 08:59:06;;;;;;;11.90;7.70;;;17.70;99.90;;;;;;5019159;28;20037;-74
2023/10/11 09:01:36;;;;;;;10.15;7.40;;;17.80;99.90;;;;;;5015472;28;20057;-73
2023/10/11 09:04:11;;;;;;;16.00;11.73;;;17.80;99.90;;;;;;5017970;28;20400;-74
2023/10/11 09:06:42;;;;;;;17.38;10.85;;;17.80;99.90;;;;;;5011851;28;20037;-73
2023/10/11 09:09:15;;;;;;;19.63;12.70;;;17.80;99.90;;;;;;5018655;28;20056;-73
2023/10/11 09:12:20;;;;;;;21.70;13.57;;;17.80;99.90;;;;;;4984486;28;20029;-73
2023/10/11 09:14:58;;;;;;;19.95;13.35;;;17.70;99.90;;;;;;5015619;28;20045;-73
2023/10/11 09:17:29;;;;;;;19.95;14.07;;;17.70;99.90;;;;;;5032775;28;20029;-73
2023/10/11 09:20:00;;;;;;;24.52;16.20;;;17.70;99.90;;;;;;5016708;28;20507;-74
2023/10/11 09:22:28;;;;;;;17.02;11.68;;;17.70;99.90;;;;;;5017120;28;20064;-74
2023/10/11 09:25:21;;;;;;;15.38;11.35;;;17.70;99.90;;;;;;5017479;28;20029;-74
2023/10/11 09:27:49;;;;;;;14.57;12.00;;;17.80;99.90;;;;;;5016200;28;20496;-73
2023/10/11 09:30:20;;;;;;;20.05;13.50;;;17.80;99.90;;;;;;5000445;28;20044;-74
2023/10/11 09:32:59;;;;;;;21.98;13.75;;;17.80;99.90;;;;;;5016274;28;20033;-73
2023/10/11 09:35:27;;;;;;;19.98;12.95;;;17.90;99.90;;;;;;4999461;28;20381;-74
2023/10/11 09:37:58;;;;;;;21.00;15.07;;;17.90;99.90;;;;;;5013588;28;20041;-74
2023/10/11 09:40:28;;;;;;;18.38;12.68;;;17.90;99.90;;;;;;5000749;28;20042;-74
2023/10/11 09:43:01;;;;;;;24.60;17.00;;;17.80;99.90;;;;;;5002734;28;20037;-74
2023/10/11 09:45:42;;;;;;;23.55;15.85;;;17.90;99.90;;;;;;5017332;28;20037;-73
2023/10/11 09:48:12;;;;;;;20.20;12.75;;;17.90;99.90;;;;;;5003601;28;20036;-74
2023/10/11 09:50:41;;;;;;;19.33;13.38;;;17.80;99.90;;;;;;5017627;28;20041;-72
2023/10/11 09:53:14;;;;;;;17.52;13.30;;;17.80;99.90;;;;;;5003194;28;20034;-73
2023/10/11 09:55:52;;;;;;;21.98;14.50;;;17.80;99.90;;;;;;5035959;28;20038;-73
2023/10/11 09:58:28;;;;;;;23.38;15.07;;;17.80;99.90;;;;;;5003125;28;20029;-72
2023/10/11 10:01:18;;;;;;;18.40;12.00;;;17.80;99.90;;;;;;5021298;28;20041;-72
2023/10/11 10:03:47;;;;;;;26.63;17.05;;;17.90;99.90;;;;;;5019609;28;20040;-73
2023/10/11 10:06:21;;;;;;;22.95;15.80;;;17.90;99.90;;;;;;5020514;28;20484;-73
2023/10/11 10:12:09;;;;;;;31.75;19.80;;;17.90;99.90;;;;;;5017006;28;20416;-73
2023/10/11 10:14:42;;;;;;;24.77;15.73;;;17.90;99.90;;;;;;5021164;28;20383;-75
2023/10/11 10:17:13;;;;;;;19.20;14.77;;;17.90;99.90;;;;;;5015054;28;20545;-74
2023/10/11 10:19:43;;;;;;;21.48;15.18;;;17.80;99.90;;;;;;5002371;28;20396;-73
2023/10/11 10:22:27;;;;;;;25.40;17.88;;;17.80;99.90;;;;;;5021080;28;20052;-74
2023/10/11 10:24:57;;;;;;;26.58;16.95;;;17.80;99.90;;;;;;5031746;28;20045;-74
2023/10/11 10:27:23;;;;;;;22.88;15.35;;;17.80;99.90;;;;;;5014326;28;20328;-73
2023/10/11 10:30:05;;;;;;;26.10;16.65;;;17.80;99.90;;;;;;5022830;28;20040;-76
2023/10/11 10:32:32;;;;;;;25.20;17.27;;;17.80;99.90;;;;;;5019578;28;20509;-77
2023/10/11 10:35:22;;;;;;;20.75;15.27;;;17.90;99.90;;;;;;5018980;28;20025;-77
2023/10/11 10:38:03;;;;;;;28.55;18.13;;;17.90;99.90;;;;;;5019781;28;20049;-75
2023/10/11 10:40:29;;;;;;;23.83;16.38;;;18.00;99.90;;;;;;4997715;28;20053;-75
2023/10/11 10:43:20;;;;;;;23.85;15.70;;;18.00;99.90;;;;;;5019528;28;20045;-75
2023/10/11 10:45:48;;;;;;;15.77;12.35;;;18.00;99.90;;;;;;4996241;28;20048;-76
2023/10/11 10:48:20;;;;;;;21.83;15.23;;;18.10;99.90;;;;;;4987368;28;20064;-76
2023/10/11 10:51:01;;;;;;;20.05;14.23;;;18.20;99.90;;;;;;5020199;28;20041;-76
2023/10/11 10:53:38;;;;;;;21.42;14.35;;;18.20;99.90;;;;;;5002754;28;20044;-75
2023/10/11 10:56:05;;;;;;;30.80;17.27;;;18.20;99.90;;;;;;5019299;28;20030;-74
2023/10/11 10:58:32;;;;;;;21.80;14.07;;;18.20;99.90;;;;;;5018078;28;20037;-74
2023/10/11 11:00:59;;;;;;;20.98;14.45;;;18.20;99.90;;;;;;5019991;28;20120;-73
2023/10/11 11:03:32;;;;;;;29.17;18.85;;;18.30;99.90;;;;;;5015532;28;20037;-76
2023/10/11 11:06:01;;;;;;;24.73;15.23;;;18.30;99.90;;;;;;5013214;28;20492;-74
2023/10/11 11:08:29;;;;;;;25.88;16.10;;;18.30;99.90;;;;;;4998230;28;20492;-74
2023/10/11 11:11:27;;;;;;;31.42;17.80;;;18.30;99.90;;;;;;5003231;28;20048;-74
2023/10/11 11:13:56;;;;;;;19.55;14.15;;;18.30;99.90;;;;;;5018541;28;20396;-74
2023/10/11 11:16:29;;;;;;;20.08;13.65;;;18.30;99.90;;;;;;4985940;28;20037;-74
2023/10/11 11:19:00;;;;;;;31.98;19.20;;;18.40;99.90;;;;;;5017829;28;20029;-73
2023/10/11 11:21:29;;;;;;;19.42;13.68;;;18.40;99.90;;;;;;5017912;28;20829;-74
2023/10/11 11:24:18;;;;;;;26.70;15.60;;;18.40;99.90;;;;;;4982152;28;20037;-73
2023/10/11 11:26:45;;;;;;;23.92;15.65;;;18.50;99.90;;;;;;5016504;28;20507;-73
2023/10/11 11:29:33;;;;;;;20.80;13.85;;;18.50;99.90;;;;;;5016149;28;20033;-73
2023/10/11 11:32:14;;;;;;;22.50;13.93;;;18.50;99.90;;;;;;5017919;28;20045;-74
2023/10/11 11:35:02;;;;;;;24.02;15.88;;;18.60;99.90;;;;;;5032235;28;20033;-74
2023/10/11 11:37:34;;;;;;;25.35;14.65;;;18.70;99.90;;;;;;4994999;28;20040;-73
2023/10/11 11:40:19;;;;;;;20.00;12.95;;;18.70;99.90;;;;;;5015037;28;20072;-73
2023/10/11 11:42:47;;;;;;;17.55;11.77;;;18.90;99.90;;;;;;5015935;28;20480;-73
2023/10/11 11:45:14;;;;;;;16.67;10.95;;;19.00;99.90;;;;;;5016115;28;20037;-73
2023/10/11 11:47:55;;;;;;;27.02;14.85;;;19.10;99.90;;;;;;5016305;28;20052;-73
2023/10/11 11:50:31;;;;;;;15.63;10.70;;;19.10;99.90;;;;;;5014780;28;20033;-73
2023/10/11 11:52:58;;;;;;;15.43;10.68;;;19.20;99.90;;;;;;5020516;28;20302;-74
2023/10/11 11:55:24;;;;;;;16.90;11.30;;;19.20;99.90;;;;;;5017903;28;20044;-73
2023/10/11 11:57:51;;;;;;;17.55;10.65;;;19.30;99.90;;;;;;5018301;28;20033;-73
2023/10/11 12:03:04;;;;;;;17.40;11.23;;;19.40;99.90;;;;;;5021334;28;20041;-74
2023/10/11 12:05:37;;;;;;;13.68;9.30;;;19.50;99.90;;;;;;5017724;28;20388;-74
2023/10/11 12:08:06;;;;;;;15.13;8.43;;;19.50;99.90;;;;;;5018897;28;20045;-75
2023/10/11 12:10:32;;;;;;;15.60;8.15;;;19.40;99.90;;;;;;5018821;28;20038;-74
2023/10/11 12:13:05;;;;;;;13.52;8.73;;;19.50;99.90;;;;;;5014240;28;20492;-75
2023/10/11 12:15:33;;;;;;;12.23;7.32;;;19.50;99.90;;;;;;5018398;28;20033;-74
2023/10/11 12:17:59;;;;;;;11.10;7.28;;;19.60;99.90;;;;;;5016278;28;20575;-74
2023/10/11 12:20:34;;;;;;;10.88;6.68;;;19.60;99.90;;;;;;5016706;28;20052;-75
2023/10/11 12:23:10;;;;;;;12.38;7.32;;;19.60;99.90;;;;;;5017177;28;20049;-73
2023/10/11 12:25:37;;;;;;;15.15;8.50;;;19.60;99.90;;;;;;5031025;28;20037;-75
2023/10/11 12:28:06;;;;;;;14.52;6.95;;;19.50;99.90;;;;;;5016677;28;20690;-74
2023/10/11 12:30:36;;;;;;;7.57;5.28;;;19.50;99.90;;;;;;5000307;28;20034;-73
2023/10/11 12:33:09;;;;;;;13.85;8.30;;;19.50;99.90;;;;;;4998787;28;20040;-74
2023/10/11 12:35:40;;;;;;;9.98;6.13;;;19.50;99.90;;;;;;5014564;28;20492;-74
2023/10/11 12:38:13;;;;;;;11.07;6.70;;;19.50;99.90;;;;;;5016430;28;20048;-73
2023/10/11 12:40:44;;;;;;;9.38;5.68;;;19.50;99.90;;;;;;5016057;28;20626;-73
2023/10/11 12:43:11;;;;;;;14.63;7.13;;;19.50;99.90;;;;;;5012473;28;20042;-74
2023/10/11 12:45:42;;;;;;;15.25;7.70;;;19.50;99.90;;;;;;5016055;28;20041;-73
2023/10/11 12:48:10;;;;;;;11.40;7.30;;;19.50;99.90;;;;;;5000333;28;20045;-73
2023/10/11 12:50:37;;;;;;;9.40;5.65;;;19.50;99.90;;;;;;5017016;28;20025;-73
2023/10/11 12:53:13;;;;;;;10.90;7.15;;;19.50;99.90;;;;;;5000049;28;20039;-73
2023/10/11 12:55:48;;;;;;;9.63;5.40;;;19.40;99.90;;;;;;5016913;28;20033;-73
2023/10/11 12:58:16;;;;;;;12.40;7.63;;;19.40;99.90;;;;;;5017297;28;20029;-75
2023/10/11 13:00:48;;;;;;;19.13;8.77;;;19.50;99.90;;;;;;5028676;28;20044;-73
2023/10/11 13:03:18;;;;;;;10.43;5.32;;;19.40;99.90;;;;;;4999502;28;20049;-74
2023/10/11 13:05:45;;;;;;;13.45;7.53;;;19.40;99.90;;;;;;5001176;28;20041;-73
2023/10/11 13:08:14;;;;;;;12.07;7.28;;;19.40;99.90;;;;;;5027722;28;20038;-74
2023/10/11 13:10:45;;;;;;;12.07;7.00;;;19.30;99.90;;;;;;5016656;28;20029;-74
2023/10/11 13:13:15;;;;;;;14.70;8.45;;;19.30;99.90;;;;;;5017642;28;20033;-73
2023/10/11 13:15:55;;;;;;;14.27;8.90;;;19.20;99.90;;;;;;4997406;28;20037;-74
2023/10/11 13:18:22;;;;;;;10.80;7.38;;;19.20;99.90;;;;;;5028120;28;20030;-74
2023/10/11 13:20:48;;;;;;;12.75;8.13;;;19.20;99.90;;;;;;4998939;28;20092;-74
2023/10/11 13:23:15;;;;;;;14.52;9.68;;;19.20;99.90;;;;;;5017431;28;20056;-74
2023/10/11 13:25:44;;;;;;;13.27;9.20;;;19.20;99.90;;;;;;5016014;28;20385;-74
2023/10/11 13:28:17;;;;;;;11.85;8.13;;;19.20;99.90;;;;;;5015686;28;20034;-74
2023/10/11 13:30:47;;;;;;;17.88;10.80;;;19.20;99.90;;;;;;5014561;28;20033;-73
2023/10/11 13:33:15;;;;;;;19.23;12.20;;;19.20;99.90;;;;;;5011812;28;20476;-73
2023/10/11 13:35:42;;;;;;;22.77;13.40;;;19.20;99.90;;;;;;4998477;28;20056;-73
2023/10/11 13:38:11;;;;;;;16.15;10.98;;;19.20;99.90;;;;;;5015063;28;20037;-73
2023/10/11 13:40:41;;;;;;;21.88;14.32;;;19.20;99.90;;;;;;5010257;28;20049;-73
2023/10/11 13:43:08;;;;;;;19.80;12.20;;;19.20;99.90;;;;;;4999355;28;20037;-73
2023/10/11 13:45:40;;;;;;;18.70;12.20;;;19.20;99.90;;;;;;4993620;28;20041;-73
2023/10/11 13:48:13;;;;;;;21.63;14.80;;;19.20;99.90;;;;;;4999334;28;20048;-74
2023/10/11 13:50:49;;;;;;;16.15;11.55;;;19.20;99.90;;;;;;5016297;28;20472;-74
2023/10/11 13:53:17;;;;;;;15.35;11.13;;;19.20;99.90;;;;;;5014469;28;20582;-73
2023/10/11 13:55:44;;;;;;;22.95;15.13;;;19.20;99.90;;;;;;4999479;28;20484;-74
2023/10/11 13:58:10;;;;;;;14.48;11.70;;;19.20;99.90;;;;;;5015070;28;20495;-73